createdAt,value
2023-03-27T06:22:02.100Z,1005.90
2023-03-27T06:22:14.150Z,1005.89
2023-03-27T06:22:23.519Z,1005.93
2023-03-27T06:22:37.582Z,1005.93
2023-03-27T06:22:44.645Z,1005.85
2023-03-27T06:22:53.746Z,1005.88
2023-03-27T06:23:03.783Z,1005.88
2023-03-27T06:23:24.136Z,1005.90
2023-03-27T06:23:34.144Z,1005.89
2023-03-27T06:23:44.166Z,1005.87
2023-03-27T06:23:54.351Z,1005.89
2023-03-27T06:24:04.391Z,1005.89
2023-03-27T06:24:14.610Z,1005.86
2023-03-27T06:24:24.701Z,1005.88
2023-03-27T06:24:34.960Z,1005.92
2023-03-27T06:24:45.024Z,1005.87
2023-03-27T06:24:55.240Z,1005.89
2023-03-27T06:25:05.283Z,1005.87
2023-03-27T06:25:15.412Z,1005.92
2023-03-27T06:25:25.324Z,1005.89
2023-03-27T06:25:35.529Z,1005.88
2023-03-27T06:25:45.607Z,1005.91
2023-03-27T06:25:55.805Z,1005.85
2023-03-27T06:35:08.751Z,1005.64
2023-03-27T06:35:18.340Z,1005.62
2023-03-27T06:35:28.921Z,1005.63
2023-03-27T06:35:39.570Z,1005.63
2023-03-27T06:35:52.872Z,1005.62
2023-03-27T06:35:59.462Z,1005.66
2023-03-27T06:36:09.065Z,1005.66
2023-03-27T06:36:19.285Z,1005.68
2023-03-27T06:36:29.446Z,1005.65
2023-03-27T06:36:39.613Z,1005.65
2023-03-27T06:36:49.581Z,1005.66
2023-03-27T06:36:59.839Z,1005.74
2023-03-27T06:37:09.788Z,1005.71
2023-03-27T06:37:20.004Z,1005.65
2023-03-27T06:37:30.119Z,1005.68
2023-03-27T06:37:40.251Z,1005.69
2023-03-27T06:37:51.251Z,1005.63
2023-03-27T06:38:00.572Z,1005.65
2023-03-27T06:38:10.580Z,1005.63
2023-03-27T06:38:20.766Z,1005.66
2023-03-27T06:38:30.901Z,1005.68
2023-03-27T06:38:41.029Z,1005.62
2023-03-27T06:38:51.101Z,1005.64
2023-03-27T06:39:01.354Z,1005.65
2023-03-27T06:39:11.454Z,1005.63
2023-03-27T06:39:21.920Z,1005.65
2023-03-27T06:39:31.686Z,1005.64
2023-03-27T06:39:41.831Z,1005.65
2023-03-27T06:39:51.990Z,1005.66
2023-03-27T06:40:02.131Z,1005.63
2023-03-27T06:40:12.160Z,1005.63
2023-03-27T06:40:22.469Z,1005.62
2023-03-27T06:40:32.851Z,1005.64
2023-03-27T06:40:42.536Z,1005.64
2023-03-27T06:40:52.658Z,1005.63
2023-03-27T06:41:02.773Z,1005.61
2023-03-27T06:41:12.865Z,1005.65
2023-03-27T06:41:23.876Z,1005.62
2023-03-27T06:41:33.178Z,1005.59
2023-03-27T06:41:43.236Z,1005.61
2023-03-27T06:41:53.410Z,1005.60
2023-03-27T06:42:03.506Z,1005.64
2023-03-27T06:42:13.596Z,1005.63
2023-03-27T06:42:33.847Z,1005.64
2023-03-27T06:42:43.959Z,1005.63
2023-03-27T06:42:54.172Z,1005.65
2023-03-27T06:43:04.217Z,1005.63
2023-03-27T06:43:14.229Z,1005.64
2023-03-27T06:43:24.373Z,1005.62
2023-03-27T06:43:34.563Z,1005.65
2023-03-27T06:43:44.749Z,1005.62
2023-03-27T06:43:54.732Z,1005.61
2023-03-27T06:44:04.900Z,1005.55
2023-03-27T06:44:15.012Z,1005.55
2023-03-27T06:44:25.101Z,1005.56
2023-03-27T06:44:35.232Z,1005.60
2023-03-27T06:44:45.392Z,1005.56
2023-03-27T06:44:55.448Z,1005.57
2023-03-27T06:45:05.567Z,1005.56
2023-03-27T06:45:15.762Z,1005.57
2023-03-27T06:45:25.781Z,1005.57
2023-03-27T06:45:36.351Z,1005.54
2023-03-27T06:45:46.116Z,1005.52
2023-03-27T06:45:56.275Z,1005.54
2023-03-27T06:46:06.271Z,1005.50
2023-03-27T06:46:16.466Z,1005.52
2023-03-27T06:46:35.269Z,1005.53
2023-03-27T06:46:48.637Z,1005.55
2023-03-27T06:46:54.645Z,1005.51
2023-03-27T06:47:04.786Z,1005.51
2023-03-27T06:47:14.846Z,1005.52
2023-03-27T06:47:25.025Z,1005.50
2023-03-27T06:47:44.727Z,1005.47
2023-03-27T06:48:15.292Z,1005.46
2023-03-27T06:48:25.760Z,1005.47
2023-03-27T06:48:31.684Z,1005.44
2023-03-27T06:48:42.109Z,1005.45
2023-03-27T06:48:51.958Z,1005.43
2023-03-27T06:49:02.154Z,1005.48
2023-03-27T06:49:12.247Z,1005.42
2023-03-27T06:49:32.474Z,1005.38
2023-03-27T06:49:42.626Z,1005.43
2023-03-27T06:49:52.714Z,1005.41
2023-03-27T06:50:02.848Z,1005.39
2023-03-27T06:50:12.891Z,1005.41
2023-03-27T06:50:24.011Z,1005.41
2023-03-27T06:50:33.146Z,1005.41
2023-03-27T06:50:43.317Z,1005.40
2023-03-27T06:50:53.384Z,1005.37
2023-03-27T06:51:03.501Z,1005.37
2023-03-27T06:51:13.644Z,1005.37
2023-03-27T06:51:33.841Z,1005.27
2023-03-27T06:51:44.037Z,1005.24
2023-03-27T06:51:55.763Z,1005.30
2023-03-27T06:52:04.389Z,1005.31
2023-03-27T06:52:14.506Z,1005.30
2023-03-27T06:52:24.717Z,1005.28
2023-03-27T06:52:38.249Z,1005.26
2023-03-27T06:52:44.760Z,1005.21
2023-03-27T06:56:23.985Z,1005.20
2023-03-27T06:56:35.108Z,1005.25
2023-03-27T06:56:45.293Z,1005.20
2023-03-27T06:56:55.429Z,1005.35
2023-03-27T06:57:05.526Z,1005.31
2023-03-27T06:57:15.745Z,1005.25
2023-03-27T06:57:25.841Z,1005.23
2023-03-27T06:57:36.049Z,1005.20
2023-03-27T06:57:46.133Z,1005.19
2023-03-27T06:57:56.360Z,1005.21
2023-03-27T06:58:06.973Z,1005.16
2023-03-27T06:58:16.534Z,1005.12
2023-03-27T06:58:26.653Z,1005.14
2023-03-27T06:58:36.785Z,1005.11
2023-03-27T06:58:46.979Z,1005.08
2023-03-27T06:58:57.004Z,1005.04
2023-03-27T06:59:07.206Z,1005.05
2023-03-27T06:59:17.355Z,1005.02
2023-03-27T06:59:27.433Z,1005.02
2023-03-27T06:59:37.752Z,1004.94
2023-03-27T06:59:47.655Z,1004.90
2023-03-27T06:59:59.073Z,1004.91
2023-03-27T07:00:08.031Z,1004.86
2023-03-27T07:00:18.103Z,1004.88
2023-03-27T07:00:28.376Z,1004.82
2023-03-27T07:00:38.392Z,1004.84
2023-03-27T07:00:49.375Z,1004.79
2023-03-27T07:00:58.714Z,1004.80
2023-03-27T07:01:08.770Z,1004.80
2023-03-27T07:01:18.989Z,1004.80
2023-03-27T07:01:28.919Z,1004.79
2023-03-27T07:01:39.078Z,1004.85
2023-03-27T07:01:59.410Z,1004.83
2023-03-27T07:05:55.394Z,1004.76
2023-03-27T07:06:06.248Z,1004.76
2023-03-27T07:06:16.384Z,1004.72
2023-03-27T07:06:26.589Z,1004.72
2023-03-27T07:06:38.567Z,1004.71
2023-03-27T07:06:46.821Z,1004.71
2023-03-27T07:06:56.917Z,1004.75
2023-03-27T07:07:07.063Z,1004.76
2023-03-27T07:07:17.146Z,1004.72
2023-03-27T07:07:27.446Z,1004.72
2023-03-27T07:07:38.979Z,1004.70
2023-03-27T07:07:49.263Z,1004.72
2023-03-27T07:07:57.792Z,1004.74
2023-03-27T07:08:21.141Z,1004.75
2023-03-27T07:08:27.827Z,1004.75
2023-03-27T07:08:33.854Z,1004.69
2023-03-27T07:08:44.035Z,1004.67
2023-03-27T07:08:54.108Z,1004.61
2023-03-27T07:09:04.226Z,1004.68
2023-03-27T07:09:14.329Z,1004.67
2023-03-27T07:09:35.205Z,1004.64
2023-03-27T07:09:44.820Z,1004.61
2023-03-27T07:09:54.856Z,1004.60
2023-03-27T07:10:04.988Z,1004.54
2023-03-27T07:10:15.329Z,1004.54
2023-03-27T07:10:25.096Z,1004.55
2023-03-27T07:10:35.335Z,1004.46
2023-03-27T07:10:50.880Z,1004.47
2023-03-27T07:11:11.477Z,1004.43
2023-03-27T07:11:17.881Z,1004.37
2023-03-27T07:11:24.080Z,1004.38
2023-03-27T07:11:34.239Z,1004.37
2023-03-27T07:11:44.319Z,1004.29
2023-03-27T07:11:54.473Z,1004.29
2023-03-27T07:12:04.642Z,1004.24
2023-03-27T07:12:24.874Z,1004.18
2023-03-27T07:12:34.919Z,1004.21
2023-03-27T07:12:45.130Z,1004.21
2023-03-27T07:12:55.253Z,1004.24
2023-03-27T07:13:05.466Z,1004.18
2023-03-27T07:13:15.464Z,1004.20
2023-03-27T07:13:25.614Z,1004.21
2023-03-27T07:13:35.780Z,1004.19
2023-03-27T07:13:46.056Z,1004.23
2023-03-27T07:13:55.987Z,1004.20
2023-03-27T07:14:06.228Z,1004.24
2023-03-27T07:14:16.806Z,1004.20
2023-03-27T07:14:26.415Z,1004.21
2023-03-27T07:14:36.523Z,1004.25
2023-03-27T07:14:46.741Z,1004.27
2023-03-27T07:14:56.862Z,1004.25
2023-03-27T07:15:06.871Z,1004.21
2023-03-27T07:15:17.145Z,1004.28
2023-03-27T07:15:27.188Z,1004.23
2023-03-27T07:15:37.267Z,1004.24
2023-03-27T07:15:47.436Z,1004.24
2023-03-27T07:15:57.477Z,1004.24
2023-03-27T07:16:07.668Z,1004.28
2023-03-27T07:16:17.682Z,1004.32
2023-03-27T07:16:27.912Z,1004.29
2023-03-27T07:16:38.112Z,1004.26
2023-03-27T07:16:48.093Z,1004.30
2023-03-27T07:16:59.139Z,1004.30
2023-03-27T07:17:09.499Z,1004.30
2023-03-27T07:17:18.509Z,1004.35
2023-03-27T07:17:38.503Z,1004.33
2023-03-27T07:17:51.342Z,1004.28
2023-03-27T07:17:57.294Z,1004.28
2023-03-27T07:18:07.356Z,1004.30
2023-03-27T07:18:17.550Z,1004.28
2023-03-27T07:18:27.630Z,1004.28
2023-03-27T07:18:37.746Z,1004.30
2023-03-27T07:19:01.199Z,1004.34
2023-03-27T07:19:08.114Z,1004.30
2023-03-27T07:19:18.409Z,1004.25
2023-03-27T07:19:28.330Z,1004.24
2023-03-27T07:19:38.532Z,1004.20
2023-03-27T07:19:48.624Z,1004.20
2023-03-27T07:19:58.849Z,1004.24
2023-03-27T07:20:08.928Z,1004.22
2023-03-27T07:20:19.036Z,1004.19
2023-03-27T07:20:29.115Z,1004.21
2023-03-27T07:20:39.286Z,1004.19
2023-03-27T07:20:49.324Z,1004.18
2023-03-27T07:20:59.743Z,1004.21
2023-03-27T07:21:09.555Z,1004.22
2023-03-27T07:21:19.745Z,1004.22
2023-03-27T07:21:29.797Z,1004.12
2023-03-27T07:21:40.072Z,1004.16
2023-03-27T07:21:50.152Z,1004.13
2023-03-27T07:22:00.279Z,1004.14
2023-03-27T07:22:10.434Z,1004.13
2023-03-27T07:22:20.650Z,1004.13
2023-03-27T07:22:30.490Z,1004.18
2023-03-27T07:22:40.694Z,1004.12
2023-03-27T07:22:50.806Z,1004.07
2023-03-27T07:23:04.148Z,1004.09
2023-03-27T07:23:10.960Z,1004.09
2023-03-27T07:23:21.253Z,1004.05
2023-03-27T07:23:31.416Z,1004.02
2023-03-27T07:23:41.402Z,1004.07
2023-03-27T07:23:51.537Z,1004.04
2023-03-27T07:24:11.723Z,1004.04
2023-03-27T07:24:21.932Z,1004.03
2023-03-27T07:24:31.969Z,1004.03
2023-03-27T07:24:42.122Z,1004.01
2023-03-27T07:24:52.246Z,1004.03
2023-03-27T07:25:02.274Z,1004.08
2023-03-27T07:25:12.429Z,1004.02
2023-03-27T07:25:22.577Z,1004.04
2023-03-27T07:25:32.668Z,1003.97
2023-03-27T07:25:42.867Z,1004.01
2023-03-27T07:25:52.944Z,1003.97
2023-03-27T07:26:03.208Z,1003.94
2023-03-27T07:26:13.325Z,1003.96
2023-03-27T07:26:23.375Z,1003.99
2023-03-27T07:26:33.452Z,1003.90
2023-03-27T07:26:43.585Z,1003.87
2023-03-27T07:26:53.636Z,1003.91
2023-03-27T07:27:03.790Z,1003.78
2023-03-27T07:27:14.014Z,1003.83
2023-03-27T07:27:24.115Z,1003.84
2023-03-27T07:27:34.238Z,1003.77
2023-03-27T07:27:44.393Z,1003.78
2023-03-27T07:27:54.587Z,1003.76
2023-03-27T07:28:06.257Z,1003.70
2023-03-27T07:28:14.733Z,1003.71
2023-03-27T07:28:24.861Z,1003.70
2023-03-27T07:28:35.001Z,1003.67
2023-03-27T07:28:45.106Z,1003.66
2023-03-27T07:28:55.209Z,1003.59
2023-03-27T07:29:05.341Z,1003.55
2023-03-27T07:29:15.418Z,1003.58
2023-03-27T07:29:25.614Z,1003.56
2023-03-27T07:29:35.723Z,1003.54
2023-03-27T07:29:45.912Z,1003.45
2023-03-27T07:29:57.734Z,1003.45
2023-03-27T07:30:06.091Z,1003.46
2023-03-27T07:30:16.199Z,1003.43
2023-03-27T07:30:26.417Z,1003.45
2023-03-27T07:30:36.390Z,1003.48
2023-03-27T07:30:46.620Z,1003.46
2023-03-27T07:31:10.702Z,1003.61
2023-03-27T07:31:37.280Z,1003.57
2023-03-27T07:31:58.741Z,1003.62
2023-03-27T07:32:09.068Z,1003.80
2023-03-27T07:32:22.273Z,1003.82
2023-03-27T07:32:37.778Z,1003.88
2023-03-27T07:32:44.089Z,1003.78
2023-03-27T07:32:54.122Z,1003.92
2023-03-27T07:33:04.316Z,1003.98
2023-03-27T07:33:14.576Z,1004.02
2023-03-27T07:33:24.635Z,1004.04
2023-03-27T07:33:44.816Z,1004.13
2023-03-27T07:33:54.959Z,1004.17
2023-03-27T07:34:05.248Z,1004.21
2023-03-27T07:34:15.281Z,1004.24
2023-03-27T07:34:25.423Z,1004.30
